Time;durP1;ratioP1;P1;durP2;ratioP2;P2;SDS_P1;SDS_P2;PMS_P1;PMS_P2;Temp;Humidity;BMP_temperature;BMP_pressure;BME280_temperature;BME280_humidity;BME280_pressure;Samples;Min_cycle;Max_cycle;Signal;HPM_P1;HPM_P2
2022/11/21 00:01:16;;;;;;;17.30;11.63;;;;;;;;;;6186737;23;20226;-76
2022/11/21 00:03:44;;;;;;;14.10;11.00;;;;;;;;;;6186276;23;20200;-76
2022/11/21 00:06:14;;;;;;;16.73;11.17;;;;;;;;;;6186539;23;20215;-76
2022/11/21 00:08:43;;;;;;;15.90;12.03;;;;;;;;;;6187087;23;20211;-76
2022/11/21 00:11:11;;;;;;;17.43;12.20;;;;;;;;;;6185835;23;20186;-76
2022/11/21 00:13:40;;;;;;;16.77;11.83;;;;;;;;;;6186335;23;20311;-76
2022/11/21 00:16:10;;;;;;;16.33;11.67;;;;;;;;;;6186169;23;20183;-76
2022/11/21 00:18:38;;;;;;;17.00;12.13;;;;;;;;;;6186623;23;20558;-76
2022/11/21 00:21:07;;;;;;;16.80;11.87;;;;;;;;;;6186275;23;20179;-76
2022/11/21 00:23:37;;;;;;;16.83;11.77;;;;;;;;;;6186616;23;20712;-76
2022/11/21 00:26:06;;;;;;;15.37;12.17;;;;;;;;;;6186491;23;20184;-76
2022/11/21 00:28:35;;;;;;;15.77;11.97;;;;;;;;;;6186251;23;20180;-76
2022/11/21 00:31:04;;;;;;;16.57;11.83;;;;;;;;;;6186559;23;20195;-76
2022/11/21 00:33:32;;;;;;;15.50;11.63;;;;;;;;;;6186293;23;20196;-76
2022/11/21 00:36:06;;;;;;;15.87;11.00;;;;;;;;;;6186107;23;20187;-76
2022/11/21 00:38:34;;;;;;;15.20;11.60;;;;;;;;;;6186178;23;20167;-76
2022/11/21 00:41:04;;;;;;;14.90;11.97;;;;;;;;;;6186110;23;20179;-76
2022/11/21 00:43:32;;;;;;;14.23;11.10;;;;;;;;;;6185962;23;20196;-76
2022/11/21 00:46:01;;;;;;;15.53;11.60;;;;;;;;;;6186509;23;20184;-76
2022/11/21 00:48:30;;;;;;;15.90;12.30;;;;;;;;;;6185696;23;20590;-76
2022/11/21 00:51:00;;;;;;;18.30;12.37;;;;;;;;;;6186716;23;20577;-76
2022/11/21 00:53:29;;;;;;;15.97;11.97;;;;;;;;;;6185939;23;20573;-77
2022/11/21 00:55:57;;;;;;;16.63;12.00;;;;;;;;;;6186055;23;20180;-77
2022/11/21 00:58:27;;;;;;;15.67;11.70;;;;;;;;;;6185925;23;20183;-77
2022/11/21 01:01:03;;;;;;;15.20;11.43;;;;;;;;;;6185738;23;20219;-76
2022/11/21 01:03:33;;;;;;;17.00;11.73;;;;;;;;;;6186035;23;20698;-77
2022/11/21 01:06:02;;;;;;;16.27;11.10;;;;;;;;;;6156592;23;20192;-76
2022/11/21 01:08:30;;;;;;;15.53;11.50;;;;;;;;;;6155687;23;20212;-76
2022/11/21 01:11:02;;;;;;;16.67;12.37;;;;;;;;;;6155943;23;20239;-77
2022/11/21 01:13:32;;;;;;;15.07;11.50;;;;;;;;;;6156231;23;20220;-77
2022/11/21 01:16:03;;;;;;;15.13;11.70;;;;;;;;;;6155659;23;20578;-77
2022/11/21 01:18:32;;;;;;;16.13;12.37;;;;;;;;;;6156027;23;20165;-76
2022/11/21 01:21:01;;;;;;;14.90;11.23;;;;;;;;;;6155672;23;20180;-76
2022/11/21 01:23:29;;;;;;;15.87;12.37;;;;;;;;;;6156409;23;20238;-77
2022/11/21 01:26:02;;;;;;;16.17;11.90;;;;;;;;;;6155936;23;20184;-77
2022/11/21 01:28:31;;;;;;;17.17;12.37;;;;;;;;;;6156330;23;20285;-77
2022/11/21 01:31:05;;;;;;;15.13;11.80;;;;;;;;;;6155649;23;20596;-76
2022/11/21 01:33:34;;;;;;;15.87;11.77;;;;;;;;;;6156494;23;20717;-76
2022/11/21 01:36:12;;;;;;;17.60;12.37;;;;;;;;;;6155379;23;20180;-77
2022/11/21 01:38:41;;;;;;;19.80;11.57;;;;;;;;;;6156118;23;20184;-76
2022/11/21 01:41:10;;;;;;;18.37;12.73;;;;;;;;;;6155990;23;20507;-77
2022/11/21 01:43:38;;;;;;;15.83;11.87;;;;;;;;;;6155315;23;20200;-76
2022/11/21 01:46:13;;;;;;;16.17;12.20;;;;;;;;;;6155972;23;20181;-77
2022/11/21 01:48:44;;;;;;;17.07;11.97;;;;;;;;;;6155814;23;20167;-76
2022/11/21 01:51:16;;;;;;;16.77;11.87;;;;;;;;;;6155559;23;20181;-76
2022/11/21 01:53:46;;;;;;;15.20;11.57;;;;;;;;;;6155613;23;20216;-77
2022/11/21 01:56:14;;;;;;;15.50;11.07;;;;;;;;;;6155810;23;20207;-76
2022/11/21 01:58:44;;;;;;;16.40;12.50;;;;;;;;;;6155799;23;20219;-76
2022/11/21 02:01:14;;;;;;;15.57;12.00;;;;;;;;;;6156183;23;20624;-76
2022/11/21 02:03:42;;;;;;;15.43;11.70;;;;;;;;;;6157175;23;20207;-76
2022/11/21 02:06:12;;;;;;;17.93;12.03;;;;;;;;;;6185137;23;20174;-76
2022/11/21 02:09:01;;;;;;;17.63;12.53;;;;;;;;;;6185447;23;20184;-76
2022/11/21 02:11:31;;;;;;;17.03;12.13;;;;;;;;;;6184907;23;20246;-75
2022/11/21 02:14:00;;;;;;;15.97;12.10;;;;;;;;;;6185722;23;20207;-76
2022/11/21 02:16:30;;;;;;;18.17;12.40;;;;;;;;;;6185484;23;20183;-76
2022/11/21 02:18:58;;;;;;;17.03;11.77;;;;;;;;;;6185339;23;20183;-76
2022/11/21 02:21:33;;;;;;;17.07;12.60;;;;;;;;;;6185821;23;20178;-76
2022/11/21 02:24:04;;;;;;;18.60;12.27;;;;;;;;;;6185369;23;20202;-76
2022/11/21 02:26:34;;;;;;;15.83;12.03;;;;;;;;;;6185255;23;20473;-75
2022/11/21 02:29:02;;;;;;;17.03;12.13;;;;;;;;;;6185713;23;20211;-76
2022/11/21 02:31:31;;;;;;;18.17;13.37;;;;;;;;;;6185274;23;20233;-76
2022/11/21 02:33:59;;;;;;;16.03;11.67;;;;;;;;;;6185148;23;20249;-76
2022/11/21 02:36:32;;;;;;;17.13;12.60;;;;;;;;;;6185727;23;20214;-76
2022/11/21 02:39:01;;;;;;;17.20;12.43;;;;;;;;;;6185325;23;20172;-76
2022/11/21 02:41:30;;;;;;;16.10;11.80;;;;;;;;;;6185659;23;20179;-76
2022/11/21 02:44:04;;;;;;;24.53;12.40;;;;;;;;;;6185312;23;20209;-75
2022/11/21 02:46:34;;;;;;;17.07;11.97;;;;;;;;;;6185596;23;20167;-75
2022/11/21 02:49:05;;;;;;;16.23;12.10;;;;;;;;;;6187011;23;20183;-75
2022/11/21 02:51:33;;;;;;;17.33;12.70;;;;;;;;;;6186667;23;20238;-75
2022/11/21 02:54:02;;;;;;;18.47;12.70;;;;;;;;;;6187434;23;20674;-74
2022/11/21 02:56:30;;;;;;;19.97;13.17;;;;;;;;;;6186931;23;20247;-74
2022/11/21 02:59:00;;;;;;;17.30;12.73;;;;;;;;;;6187702;23;20179;-74
2022/11/21 03:01:29;;;;;;;16.03;12.13;;;;;;;;;;6187445;23;20186;-74
2022/11/21 03:03:57;;;;;;;17.03;11.57;;;;;;;;;;6186285;23;20214;-75
2022/11/21 03:06:26;;;;;;;17.27;12.67;;;;;;;;;;6187429;23;20160;-75
2022/11/21 03:08:54;;;;;;;26.13;12.70;;;;;;;;;;6187005;23;20625;-74
2022/11/21 03:11:23;;;;;;;20.10;13.30;;;;;;;;;;6188098;23;20192;-74
2022/11/21 03:13:51;;;;;;;16.70;12.27;;;;;;;;;;6187311;23;20688;-75
2022/11/21 03:16:21;;;;;;;21.87;12.83;;;;;;;;;;6187473;23;20210;-74
2022/11/21 03:18:49;;;;;;;27.77;12.97;;;;;;;;;;6186832;23;20182;-74
2022/11/21 03:21:18;;;;;;;21.43;13.27;;;;;;;;;;6187041;23;20175;-75
2022/11/21 03:23:46;;;;;;;18.50;12.90;;;;;;;;;;6186724;23;20203;-74
2022/11/21 03:26:15;;;;;;;25.40;13.67;;;;;;;;;;6186907;23;20182;-75
2022/11/21 03:28:43;;;;;;;21.57;13.37;;;;;;;;;;6186893;23;20226;-74
2022/11/21 03:31:12;;;;;;;19.50;14.17;;;;;;;;;;6186442;23;20282;-74
2022/11/21 03:33:42;;;;;;;20.27;13.80;;;;;;;;;;6186914;23;20253;-75
2022/11/21 03:36:10;;;;;;;21.23;14.33;;;;;;;;;;6187372;23;20550;-74
2022/11/21 03:38:39;;;;;;;21.80;14.67;;;;;;;;;;6186732;23;20653;-74
2022/11/21 03:41:28;;;;;;;18.90;14.83;;;;;;;;;;6186817;23;20216;-75
2022/11/21 03:43:56;;;;;;;21.73;14.93;;;;;;;;;;6187103;23;20213;-75
2022/11/21 03:46:25;;;;;;;21.37;14.60;;;;;;;;;;6187139;23;20181;-75
2022/11/21 03:48:54;;;;;;;19.10;14.60;;;;;;;;;;6187334;23;20182;-74
2022/11/21 03:51:23;;;;;;;19.60;14.27;;;;;;;;;;6186957;23;20233;-75
2022/11/21 03:53:52;;;;;;;20.17;15.20;;;;;;;;;;6187322;23;20248;-75
2022/11/21 03:56:20;;;;;;;21.97;15.33;;;;;;;;;;6186654;23;20229;-74
2022/11/21 03:58:49;;;;;;;19.03;14.83;;;;;;;;;;6186423;23;20204;-75
2022/11/21 04:01:17;;;;;;;21.53;15.00;;;;;;;;;;6186816;23;20182;-75
2022/11/21 04:03:46;;;;;;;21.17;15.27;;;;;;;;;;6187048;23;20209;-74
2022/11/21 04:06:17;;;;;;;18.33;14.60;;;;;;;;;;6186440;23;20213;-75
2022/11/21 04:08:46;;;;;;;21.53;14.97;;;;;;;;;;6186581;23;20206;-75
2022/11/21 04:11:14;;;;;;;36.90;16.03;;;;;;;;;;6186432;23;20197;-76
2022/11/21 04:13:42;;;;;;;20.73;15.43;;;;;;;;;;6186386;23;20260;-76
2022/11/21 04:16:11;;;;;;;20.63;15.60;;;;;;;;;;6186647;23;20258;-76
2022/11/21 04:18:39;;;;;;;21.40;16.10;;;;;;;;;;6186200;23;20224;-76
2022/11/21 04:21:08;;;;;;;21.70;15.47;;;;;;;;;;6186233;23;20226;-75
2022/11/21 04:23:38;;;;;;;23.10;15.90;;;;;;;;;;6186131;23;20222;-76
2022/11/21 04:26:06;;;;;;;21.63;15.43;;;;;;;;;;6186039;23;20217;-75
2022/11/21 04:28:35;;;;;;;21.53;15.50;;;;;;;;;;6186569;23;20486;-76
2022/11/21 04:31:04;;;;;;;21.87;14.83;;;;;;;;;;6186210;23;20237;-76
2022/11/21 04:33:38;;;;;;;21.17;15.70;;;;;;;;;;6186392;23;20232;-75
2022/11/21 04:36:07;;;;;;;20.87;16.07;;;;;;;;;;6186594;23;20198;-75
2022/11/21 04:38:37;;;;;;;21.93;15.70;;;;;;;;;;6186282;23;20182;-75
2022/11/21 04:41:06;;;;;;;21.27;15.93;;;;;;;;;;6186568;23;20185;-75
2022/11/21 04:43:34;;;;;;;21.93;16.37;;;;;;;;;;6186600;23;20247;-75
2022/11/21 04:46:02;;;;;;;21.43;15.77;;;;;;;;;;6185899;23;20179;-75
2022/11/21 04:48:32;;;;;;;21.93;16.27;;;;;;;;;;6186632;23;20182;-75
2022/11/21 04:51:00;;;;;;;21.90;16.20;;;;;;;;;;6186463;23;20690;-75
2022/11/21 04:53:29;;;;;;;21.50;16.20;;;;;;;;;;6186876;23;20533;-75
2022/11/21 04:55:59;;;;;;;22.90;17.37;;;;;;;;;;6186702;23;20658;-75
2022/11/21 04:58:28;;;;;;;24.77;16.70;;;;;;;;;;6185818;23;20167;-75
2022/11/21 05:00:56;;;;;;;22.37;16.27;;;;;;;;;;6186576;23;20692;-75
2022/11/21 05:03:25;;;;;;;21.83;16.40;;;;;;;;;;6185985;23;20199;-74
2022/11/21 05:05:53;;;;;;;23.47;16.43;;;;;;;;;;6186135;23;20201;-75
2022/11/21 05:08:22;;;;;;;19.90;15.33;;;;;;;;;;6186235;23;20182;-75
2022/11/21 05:13:34;;;;;;;20.50;15.57;;;;;;;;;;6137684;23;20607;-75
2022/11/21 05:16:02;;;;;;;24.03;16.57;;;;;;;;;;6185952;23;20214;-75
2022/11/21 05:18:31;;;;;;;23.33;16.10;;;;;;;;;;6186411;23;20184;-75
2022/11/21 05:21:01;;;;;;;24.97;16.20;;;;;;;;;;6186896;23;20285;-75
2022/11/21 05:23:29;;;;;;;22.37;17.00;;;;;;;;;;6186622;23;20254;-75
2022/11/21 05:25:58;;;;;;;22.83;16.63;;;;;;;;;;6186729;23;20182;-75
2022/11/21 05:28:27;;;;;;;24.43;15.70;;;;;;;;;;6186558;23;20221;-75
2022/11/21 05:30:56;;;;;;;20.17;15.63;;;;;;;;;;6185525;23;20184;-75
2022/11/21 05:33:25;;;;;;;21.97;16.13;;;;;;;;;;6186151;23;20205;-75
2022/11/21 05:35:53;;;;;;;22.73;16.53;;;;;;;;;;6185700;23;20185;-75
2022/11/21 05:38:22;;;;;;;22.43;16.50;;;;;;;;;;6185837;23;20197;-75
2022/11/21 05:40:52;;;;;;;22.73;15.90;;;;;;;;;;6185824;23;20251;-75
2022/11/21 05:46:18;;;;;;;25.07;16.60;;;;;;;;;;6132559;23;20187;-75
2022/11/21 05:48:46;;;;;;;22.30;15.60;;;;;;;;;;6186561;23;20169;-76
2022/11/21 05:51:15;;;;;;;25.93;16.83;;;;;;;;;;6185434;23;20177;-74
2022/11/21 05:54:00;;;;;;;25.80;15.63;;;;;;;;;;6185039;23;20282;-75
2022/11/21 05:56:28;;;;;;;20.43;15.53;;;;;;;;;;6185917;23;20231;-75
2022/11/21 05:58:57;;;;;;;20.33;15.23;;;;;;;;;;6185283;23;20188;-75
2022/11/21 06:04:13;;;;;;;21.90;15.70;;;;;;;;;;6185832;23;20242;-75
2022/11/21 06:06:41;;;;;;;24.97;16.63;;;;;;;;;;6186213;23;20514;-75
2022/11/21 06:09:10;;;;;;;20.43;15.17;;;;;;;;;;6185604;23;20213;-75
2022/11/21 06:11:38;;;;;;;24.63;16.40;;;;;;;;;;6186423;23;20179;-75
2022/11/21 06:14:07;;;;;;;22.07;15.27;;;;;;;;;;6186130;23;20263;-75
2022/11/21 06:16:37;;;;;;;20.03;14.93;;;;;;;;;;6185970;23;20512;-75
2022/11/21 06:19:05;;;;;;;20.90;15.40;;;;;;;;;;6186390;23;20231;-75
2022/11/21 06:21:36;;;;;;;22.37;15.60;;;;;;;;;;6186280;23;20561;-75
2022/11/21 06:24:04;;;;;;;23.47;15.43;;;;;;;;;;6186629;23;20571;-75
2022/11/21 06:26:33;;;;;;;22.53;14.77;;;;;;;;;;6188691;23;20181;-75
2022/11/21 06:29:01;;;;;;;47.00;18.30;;;;;;;;;;6187836;23;20217;-74
2022/11/21 06:31:30;;;;;;;22.40;15.43;;;;;;;;;;6187963;23;20177;-75
2022/11/21 06:34:00;;;;;;;20.53;14.80;;;;;;;;;;6188547;23;20653;-74
2022/11/21 06:36:28;;;;;;;21.80;15.63;;;;;;;;;;6188651;23;20184;-75
2022/11/21 06:38:57;;;;;;;22.17;15.13;;;;;;;;;;6188412;23;20184;-75
2022/11/21 06:41:29;;;;;;;20.53;15.97;;;;;;;;;;6187913;23;20647;-75
2022/11/21 06:44:00;;;;;;;22.53;15.23;;;;;;;;;;6188725;23;20656;-75
2022/11/21 06:46:28;;;;;;;22.13;15.53;;;;;;;;;;6188515;23;20589;-75
2022/11/21 06:48:56;;;;;;;23.80;16.30;;;;;;;;;;6188010;23;20225;-75
2022/11/21 06:51:26;;;;;;;22.07;15.03;;;;;;;;;;6188565;23;20537;-75
2022/11/21 06:53:56;;;;;;;20.43;14.77;;;;;;;;;;6188510;23;20195;-75
2022/11/21 06:56:24;;;;;;;22.03;14.73;;;;;;;;;;6187649;23;20744;-75
2022/11/21 06:58:53;;;;;;;22.20;15.00;;;;;;;;;;6188114;23;20220;-75
2022/11/21 07:01:22;;;;;;;19.23;14.43;;;;;;;;;;6188243;23;20239;-74
2022/11/21 07:03:50;;;;;;;23.77;15.23;;;;;;;;;;6187776;23;20231;-76
2022/11/21 07:06:19;;;;;;;20.83;15.43;;;;;;;;;;6187828;23;20168;-75
2022/11/21 07:08:49;;;;;;;21.43;14.77;;;;;;;;;;6187268;23;20179;-75
2022/11/21 07:11:37;;;;;;;21.73;14.83;;;;;;;;;;6187946;23;20252;-75
2022/11/21 07:14:05;;;;;;;23.77;16.10;;;;;;;;;;6187591;23;20203;-75
2022/11/21 07:16:36;;;;;;;23.13;16.27;;;;;;;;;;6188269;23;20555;-75
2022/11/21 07:19:05;;;;;;;22.93;15.90;;;;;;;;;;6187460;23;20615;-75
2022/11/21 07:21:33;;;;;;;21.60;15.47;;;;;;;;;;6187877;23;20655;-75
2022/11/21 07:24:03;;;;;;;24.40;16.67;;;;;;;;;;6187480;23;20228;-76
2022/11/21 07:26:32;;;;;;;25.50;16.83;;;;;;;;;;6187501;23;20200;-75
2022/11/21 07:29:00;;;;;;;23.93;17.20;;;;;;;;;;6186864;23;20177;-75
2022/11/21 07:31:29;;;;;;;24.07;15.83;;;;;;;;;;6187279;23;20620;-75
2022/11/21 07:33:57;;;;;;;25.07;16.80;;;;;;;;;;6186947;23;20204;-74
2022/11/21 07:36:26;;;;;;;23.13;16.23;;;;;;;;;;6187618;23;20200;-75
2022/11/21 07:38:54;;;;;;;24.07;16.47;;;;;;;;;;6188018;23;20251;-76
2022/11/21 07:41:24;;;;;;;22.83;17.07;;;;;;;;;;6187318;23;20234;-75
2022/11/21 07:43:52;;;;;;;26.20;16.47;;;;;;;;;;6187545;23;20195;-75
2022/11/21 07:46:21;;;;;;;26.40;17.27;;;;;;;;;;6187592;23;20917;-75
2022/11/21 07:48:49;;;;;;;26.67;16.97;;;;;;;;;;6187827;23;20207;-75
2022/11/21 07:51:18;;;;;;;25.27;17.17;;;;;;;;;;6187141;23;20514;-75
2022/11/21 07:53:47;;;;;;;23.93;16.73;;;;;;;;;;6187280;23;20498;-75
2022/11/21 07:56:15;;;;;;;23.80;16.33;;;;;;;;;;6188167;23;20199;-77
2022/11/21 07:58:45;;;;;;;24.57;17.77;;;;;;;;;;6186625;23;20635;-75
2022/11/21 08:01:14;;;;;;;25.87;17.57;;;;;;;;;;6187371;23;20517;-75
2022/11/21 08:03:42;;;;;;;22.83;17.17;;;;;;;;;;6186524;23;20246;-75
2022/11/21 08:06:12;;;;;;;26.03;17.83;;;;;;;;;;6187152;23;20611;-75
2022/11/21 08:08:41;;;;;;;25.30;17.87;;;;;;;;;;6186582;23;20258;-75
2022/11/21 08:11:09;;;;;;;27.17;18.03;;;;;;;;;;6186919;23;20230;-75
2022/11/21 08:13:38;;;;;;;26.07;18.13;;;;;;;;;;6186698;23;20235;-75
2022/11/21 08:16:08;;;;;;;24.13;17.33;;;;;;;;;;6186709;23;20176;-75
2022/11/21 08:18:36;;;;;;;27.40;17.50;;;;;;;;;;6186888;23;20551;-75
2022/11/21 08:21:05;;;;;;;25.50;18.10;;;;;;;;;;6187131;23;20186;-75
2022/11/21 08:23:37;;;;;;;24.73;16.93;;;;;;;;;;6186012;23;20229;-75
2022/11/21 08:26:23;;;;;;;27.37;18.07;;;;;;;;;;6188251;23;20170;-75
2022/11/21 08:28:57;;;;;;;25.97;17.73;;;;;;;;;;6188117;23;20173;-74
2022/11/21 08:31:28;;;;;;;25.20;17.77;;;;;;;;;;6184282;23;20165;-74
2022/11/21 08:33:57;;;;;;;26.63;17.83;;;;;;;;;;6184084;23;20239;-74
2022/11/21 08:36:25;;;;;;;24.97;17.17;;;;;;;;;;6184802;23;20237;-75
2022/11/21 08:38:54;;;;;;;23.87;17.23;;;;;;;;;;6186190;23;20212;-75
2022/11/21 08:44:11;;;;;;;21.47;15.83;;;;;;;;;;6148753;23;20195;-75
2022/11/21 08:46:43;;;;;;;25.03;17.33;;;;;;;;;;6186251;23;20223;-75
2022/11/21 08:49:11;;;;;;;21.10;15.03;;;;;;;;;;6187020;23;20516;-75
2022/11/21 08:51:40;;;;;;;20.53;15.97;;;;;;;;;;6187172;23;20499;-75
2022/11/21 08:54:10;;;;;;;20.10;14.70;;;;;;;;;;6186967;23;20597;-75
2022/11/21 08:56:38;;;;;;;18.80;14.80;;;;;;;;;;6187276;23;20180;-76
2022/11/21 08:59:06;;;;;;;20.00;15.07;;;;;;;;;;6187388;23;20214;-76
2022/11/21 09:01:35;;;;;;;17.27;14.20;;;;;;;;;;6187488;23;20184;-76
2022/11/21 09:04:05;;;;;;;19.43;14.43;;;;;;;;;;6187036;23;20279;-76
2022/11/21 09:06:34;;;;;;;14.83;13.20;;;;;;;;;;6186836;23;20199;-75
2022/11/21 09:09:03;;;;;;;16.87;13.20;;;;;;;;;;6187159;23;20176;-76
2022/11/21 09:11:31;;;;;;;15.00;12.83;;;;;;;;;;6186458;23;20620;-76
2022/11/21 09:19:34;;;;;;;14.53;12.87;;;;;;;;;;6186654;23;20192;-76
2022/11/21 09:22:02;;;;;;;13.87;12.37;;;;;;;;;;6186566;23;20563;-76
2022/11/21 09:24:31;;;;;;;14.53;12.80;;;;;;;;;;6186866;23;20284;-76
2022/11/21 09:27:00;;;;;;;14.07;12.53;;;;;;;;;;6186166;23;20643;-76
2022/11/21 09:29:28;;;;;;;15.00;12.43;;;;;;;;;;6186303;23;20211;-75
2022/11/21 09:31:57;;;;;;;13.47;11.90;;;;;;;;;;6186494;23;20183;-76
2022/11/21 09:34:25;;;;;;;14.13;11.87;;;;;;;;;;6185586;23;20196;-76
2022/11/21 09:36:56;;;;;;;13.10;11.60;;;;;;;;;;6186292;23;20243;-76
2022/11/21 09:39:24;;;;;;;14.53;11.40;;;;;;;;;;6186741;23;20189;-76
2022/11/21 09:41:59;;;;;;;14.20;11.83;;;;;;;;;;6185967;23;20230;-77
2022/11/21 09:44:45;;;;;;;13.83;11.63;;;;;;;;;;6186335;23;20174;-77
2022/11/21 09:47:20;;;;;;;13.97;11.70;;;;;;;;;;6163552;23;20180;-76
2022/11/21 09:49:50;;;;;;;14.50;12.03;;;;;;;;;;6186111;23;20218;-76
2022/11/21 09:52:22;;;;;;;14.30;11.30;;;;;;;;;;6186407;23;20196;-77
2022/11/21 09:54:51;;;;;;;14.53;11.97;;;;;;;;;;6185686;23;20192;-77
2022/11/21 09:57:21;;;;;;;14.97;12.50;;;;;;;;;;6185952;23;20180;-76
2022/11/21 09:59:51;;;;;;;16.17;12.27;;;;;;;;;;6186212;23;20203;-77
2022/11/21 10:02:21;;;;;;;13.63;11.53;;;;;;;;;;6185450;23;20215;-77
2022/11/21 10:04:51;;;;;;;13.83;11.57;;;;;;;;;;6185724;23;20230;-77
2022/11/21 10:07:25;;;;;;;15.73;12.07;;;;;;;;;;6186286;23;20186;-77
2022/11/21 10:10:04;;;;;;;15.90;11.73;;;;;;;;;;6185254;23;20164;-77
2022/11/21 10:12:37;;;;;;;14.40;11.90;;;;;;;;;;6184164;23;20199;-77
2022/11/21 10:15:20;;;;;;;16.17;13.40;;;;;;;;;;6185723;23;20241;-78
2022/11/21 10:17:55;;;;;;;18.90;13.03;;;;;;;;;;6185341;23;20199;-76
2022/11/21 10:20:32;;;;;;;15.67;12.47;;;;;;;;;;6185175;23;20205;-77
2022/11/21 10:23:11;;;;;;;15.77;12.10;;;;;;;;;;6185774;23;20657;-77
2022/11/21 10:25:40;;;;;;;15.30;12.30;;;;;;;;;;6185803;23;20493;-77
2022/11/21 10:28:13;;;;;;;14.70;11.93;;;;;;;;;;6185865;23;20516;-77
2022/11/21 10:30:43;;;;;;;16.77;12.00;;;;;;;;;;6185810;23;20160;-76
2022/11/21 10:33:14;;;;;;;15.47;12.17;;;;;;;;;;6185672;23;20226;-77
2022/11/21 10:35:45;;;;;;;14.50;12.13;;;;;;;;;;6185573;23;20219;-77
2022/11/21 10:38:19;;;;;;;15.50;12.03;;;;;;;;;;6184932;23;20200;-76
2022/11/21 10:40:49;;;;;;;14.67;11.83;;;;;;;;;;6185492;23;20164;-77
2022/11/21 10:46:10;;;;;;;14.30;11.30;;;;;;;;;;6185230;23;20196;-77
2022/11/21 10:48:39;;;;;;;14.20;11.07;;;;;;;;;;6185267;23;20176;-77
2022/11/21 10:51:15;;;;;;;13.97;11.07;;;;;;;;;;6185281;23;20231;-77
2022/11/21 10:56:36;;;;;;;13.43;10.63;;;;;;;;;;6185458;23;20192;-77
2022/11/21 10:59:14;;;;;;;12.93;11.07;;;;;;;;;;6184400;23;20562;-77
2022/11/21 11:01:54;;;;;;;15.10;10.40;;;;;;;;;;6184599;23;20164;-77
2022/11/21 11:04:23;;;;;;;14.33;11.07;;;;;;;;;;6185576;23;20188;-77
2022/11/21 11:06:59;;;;;;;15.20;11.30;;;;;;;;;;6185348;23;20164;-77
2022/11/21 11:09:30;;;;;;;13.73;10.67;;;;;;;;;;6185586;23;20175;-77
2022/11/21 11:12:17;;;;;;;13.43;10.20;;;;;;;;;;6187391;23;20199;-77
2022/11/21 11:14:52;;;;;;;12.00;10.40;;;;;;;;;;6186800;23;20265;-77
2022/11/21 11:17:30;;;;;;;11.73;9.40;;;;;;;;;;6187449;23;20173;-77
2022/11/21 11:20:04;;;;;;;12.33;10.33;;;;;;;;;;6187221;23;20164;-77
2022/11/21 11:22:33;;;;;;;11.90;10.33;;;;;;;;;;6187349;23;20576;-77
2022/11/21 11:25:04;;;;;;;12.90;10.73;;;;;;;;;;6186884;23;20171;-77
2022/11/21 11:27:32;;;;;;;16.50;11.07;;;;;;;;;;6187345;23;20165;-77
2022/11/21 11:30:09;;;;;;;13.97;10.57;;;;;;;;;;6187772;23;20242;-77
2022/11/21 11:32:40;;;;;;;13.53;11.00;;;;;;;;;;6187284;23;20250;-77
2022/11/21 11:35:17;;;;;;;14.50;11.10;;;;;;;;;;6187246;23;20216;-77
2022/11/21 11:37:50;;;;;;;13.93;10.77;;;;;;;;;;6187285;23;20599;-77
2022/11/21 11:40:24;;;;;;;13.53;10.57;;;;;;;;;;6187141;23;20168;-77
2022/11/21 11:49:00;;;;;;;13.60;9.97;;;;;;;;;;6182225;23;20180;-77
2022/11/21 11:51:51;;;;;;;14.80;10.90;;;;;;;;;;6186463;23;20176;-77
2022/11/21 11:54:22;;;;;;;13.40;10.80;;;;;;;;;;6186891;23;20663;-77
2022/11/21 11:56:52;;;;;;;12.23;9.77;;;;;;;;;;6187052;23;20184;-77
2022/11/21 11:59:23;;;;;;;12.10;9.50;;;;;;;;;;6186611;23;20214;-77
2022/11/21 12:01:53;;;;;;;11.63;8.97;;;;;;;;;;6186921;23;20164;-77
2022/11/21 12:04:23;;;;;;;10.77;8.57;;;;;;;;;;6186679;23;20257;-76
2022/11/21 12:06:53;;;;;;;10.67;8.20;;;;;;;;;;6187129;23;20176;-77
2022/11/21 12:09:46;;;;;;;10.03;8.17;;;;;;;;;;6186433;23;20175;-77
2022/11/21 12:12:19;;;;;;;10.17;8.00;;;;;;;;;;6186365;23;20199;-77
2022/11/21 12:17:42;;;;;;;10.77;7.63;;;;;;;;;;6186544;23;20207;-77
2022/11/21 12:20:16;;;;;;;8.70;7.73;;;;;;;;;;6186109;23;20214;-77
2022/11/21 12:22:45;;;;;;;8.10;7.00;;;;;;;;;;6186368;23;20204;-77
2022/11/21 12:25:14;;;;;;;10.17;7.53;;;;;;;;;;6187031;23;20176;-77
2022/11/21 12:27:46;;;;;;;9.10;7.00;;;;;;;;;;6186352;23;20222;-78
2022/11/21 12:30:38;;;;;;;7.70;6.53;;;;;;;;;;6187080;23;20493;-77
2022/11/21 12:33:12;;;;;;;7.97;6.07;;;;;;;;;;6158102;23;20196;-77
2022/11/21 12:35:47;;;;;;;7.33;6.33;;;;;;;;;;6186263;23;20270;-77
2022/11/21 12:38:21;;;;;;;7.80;6.33;;;;;;;;;;6186691;23;20210;-77
2022/11/21 12:40:57;;;;;;;7.07;6.10;;;;;;;;;;6185890;23;20199;-78
2022/11/21 12:43:34;;;;;;;8.03;5.97;;;;;;;;;;6186540;23;20269;-77
2022/11/21 12:46:08;;;;;;;7.23;6.00;;;;;;;;;;6186181;23;20160;-76
2022/11/21 12:54:59;;;;;;;7.30;5.83;;;;;;;;;;6186474;23;20199;-77
2022/11/21 12:57:34;;;;;;;7.43;6.10;;;;;;;;;;6186082;23;20199;-77
2022/11/21 13:00:10;;;;;;;7.20;6.30;;;;;;;;;;6186389;23;20545;-77
2022/11/21 13:02:47;;;;;;;10.40;6.30;;;;;;;;;;6185622;23;20230;-77
2022/11/21 13:05:19;;;;;;;7.30;6.10;;;;;;;;;;6185882;23;20246;-77
2022/11/21 13:07:49;;;;;;;7.27;5.93;;;;;;;;;;6186109;23;20196;-77
2022/11/21 13:10:18;;;;;;;7.63;6.00;;;;;;;;;;6185706;23;20211;-77
2022/11/21 13:12:48;;;;;;;7.83;5.83;;;;;;;;;;6186016;23;20200;-77
2022/11/21 13:15:22;;;;;;;7.50;6.40;;;;;;;;;;6186150;23;20588;-77
2022/11/21 13:17:53;;;;;;;6.73;5.80;;;;;;;;;;6185929;23;20244;-77
2022/11/21 13:20:24;;;;;;;9.40;6.33;;;;;;;;;;6185890;23;20167;-77
2022/11/21 13:22:54;;;;;;;8.13;6.30;;;;;;;;;;6185554;23;20208;-76
2022/11/21 13:25:46;;;;;;;8.00;6.73;;;;;;;;;;6185778;23;20180;-77
2022/11/21 13:28:39;;;;;;;7.43;6.27;;;;;;;;;;6186216;23;20164;-77
2022/11/21 13:31:25;;;;;;;7.83;6.37;;;;;;;;;;6156418;23;20207;-74
2022/11/21 13:33:55;;;;;;;7.00;6.20;;;;;;;;;;6170460;23;20204;-74
2022/11/21 13:36:42;;;;;;;7.73;6.50;;;;;;;;;;6184396;23;20235;-74
2022/11/21 13:39:25;;;;;;;7.07;5.97;;;;;;;;;;6184718;23;20180;-74
2022/11/21 13:45:20;;;;;;;8.43;6.43;;;;;;;;;;6185673;23;20172;-74
2022/11/21 13:48:03;;;;;;;8.30;6.80;;;;;;;;;;6185201;23;20179;-75
2022/11/21 13:50:44;;;;;;;7.93;5.83;;;;;;;;;;6184140;23;20175;-74
2022/11/21 13:53:22;;;;;;;8.57;6.67;;;;;;;;;;6183086;23;20227;-74
2022/11/21 13:55:57;;;;;;;9.73;7.23;;;;;;;;;;6181738;23;20183;-74
2022/11/21 13:58:40;;;;;;;7.47;6.27;;;;;;;;;;6184934;23;20173;-75
2022/11/21 14:01:25;;;;;;;7.57;5.97;;;;;;;;;;6184869;23;20195;-74
2022/11/21 14:04:04;;;;;;;8.20;6.40;;;;;;;;;;6182992;23;20256;-74
2022/11/21 14:06:38;;;;;;;7.07;6.00;;;;;;;;;;6185522;23;20178;-74
2022/11/21 14:09:19;;;;;;;7.60;6.53;;;;;;;;;;6185008;23;20228;-75
2022/11/21 14:11:48;;;;;;;6.97;5.87;;;;;;;;;;6184486;23;20653;-75
2022/11/21 14:14:24;;;;;;;7.67;6.23;;;;;;;;;;6184773;23;20280;-74
2022/11/21 14:16:55;;;;;;;8.33;6.20;;;;;;;;;;6185768;23;20565;-74
2022/11/21 14:19:24;;;;;;;8.40;6.43;;;;;;;;;;6184801;23;20176;-74
2022/11/21 14:21:54;;;;;;;9.27;6.43;;;;;;;;;;6185417;23;20187;-75
2022/11/21 14:24:23;;;;;;;8.50;6.53;;;;;;;;;;6185148;23;20180;-75
2022/11/21 14:26:52;;;;;;;8.47;6.30;;;;;;;;;;6184927;23;20555;-75
2022/11/21 14:29:26;;;;;;;8.87;6.17;;;;;;;;;;6183491;23;20176;-75
2022/11/21 14:31:55;;;;;;;8.97;6.70;;;;;;;;;;6185056;23;20175;-74
2022/11/21 14:34:27;;;;;;;7.57;6.13;;;;;;;;;;6185027;23;20480;-75
2022/11/21 14:36:59;;;;;;;7.80;6.20;;;;;;;;;;6184362;23;20656;-74
2022/11/21 14:39:29;;;;;;;7.70;6.10;;;;;;;;;;6184823;23;20164;-74
2022/11/21 14:42:12;;;;;;;8.17;5.90;;;;;;;;;;6185417;23;20227;-74
2022/11/21 14:44:41;;;;;;;7.53;5.90;;;;;;;;;;6185064;23;20203;-74
2022/11/21 14:47:14;;;;;;;8.03;6.07;;;;;;;;;;6186536;23;20218;-74
2022/11/21 14:49:52;;;;;;;8.87;6.37;;;;;;;;;;6186746;23;20160;-74
2022/11/21 14:52:25;;;;;;;7.30;5.80;;;;;;;;;;6187297;23;20222;-74
2022/11/21 14:54:55;;;;;;;9.17;6.20;;;;;;;;;;6186310;23;20207;-74
2022/11/21 14:57:43;;;;;;;8.87;6.50;;;;;;;;;;6184169;23;20602;-74
2022/11/21 15:00:14;;;;;;;7.60;6.13;;;;;;;;;;6182561;23;20210;-74
2022/11/21 15:03:03;;;;;;;8.93;6.63;;;;;;;;;;6182959;23;20290;-74
2022/11/21 15:05:33;;;;;;;8.37;6.70;;;;;;;;;;6184795;23;20187;-74
2022/11/21 15:08:24;;;;;;;9.07;7.40;;;;;;;;;;6184245;23;20172;-74
2022/11/21 15:11:13;;;;;;;9.33;7.20;;;;;;;;;;6185990;23;20183;-74
2022/11/21 15:13:42;;;;;;;9.40;7.50;;;;;;;;;;6185699;23;20199;-74
2022/11/21 15:16:31;;;;;;;10.13;7.77;;;;;;;;;;6185745;23;20262;-74
2022/11/21 15:18:59;;;;;;;9.87;7.70;;;;;;;;;;6187239;23;20242;-74
2022/11/21 15:21:28;;;;;;;10.40;7.53;;;;;;;;;;6187042;23;20211;-74
2022/11/21 15:23:58;;;;;;;10.10;7.40;;;;;;;;;;6186451;23;20691;-74
2022/11/21 15:26:29;;;;;;;11.53;8.13;;;;;;;;;;6186139;23;20211;-74